createdAt,value
2023-04-28T00:00:22.250Z,998.30
2023-04-28T00:01:22.223Z,998.29
2023-04-28T00:02:22.298Z,998.32
2023-04-28T00:03:22.407Z,998.34
2023-04-28T00:04:22.553Z,998.31
2023-04-28T00:05:22.240Z,998.37
2023-04-28T00:06:22.171Z,998.43
2023-04-28T00:07:22.158Z,998.40
2023-04-28T00:08:22.147Z,998.39
2023-04-28T00:09:22.151Z,998.43
2023-04-28T00:10:22.148Z,998.44
2023-04-28T00:11:22.109Z,998.45
2023-04-28T00:12:22.113Z,998.41
2023-04-28T00:13:22.122Z,998.45
2023-04-28T00:14:22.080Z,998.43
2023-04-28T00:15:22.117Z,998.45
2023-04-28T00:16:22.137Z,998.48
2023-04-28T00:17:22.106Z,998.52
2023-04-28T00:18:22.114Z,998.50
2023-04-28T00:19:22.032Z,998.50
2023-04-28T00:20:22.035Z,998.46
2023-04-28T00:21:22.051Z,998.50
2023-04-28T00:22:22.017Z,998.55
2023-04-28T00:23:21.989Z,998.53
2023-04-28T00:24:21.985Z,998.54
2023-04-28T00:25:21.996Z,998.53
2023-04-28T00:26:21.976Z,998.54
2023-04-28T00:27:21.987Z,998.56
2023-04-28T00:28:33.712Z,998.59
2023-04-28T00:29:22.940Z,998.55
2023-04-28T00:30:21.926Z,998.52
2023-04-28T00:31:21.959Z,998.55
2023-04-28T00:32:21.960Z,998.59
2023-04-28T00:33:21.973Z,998.59
2023-04-28T00:34:21.891Z,998.61
2023-04-28T00:35:21.884Z,998.60
2023-04-28T00:36:21.872Z,998.55
2023-04-28T00:37:21.871Z,998.62
2023-04-28T00:38:21.853Z,998.57
2023-04-28T00:39:21.886Z,998.62
2023-04-28T00:40:21.835Z,998.60
2023-04-28T00:41:21.844Z,998.61
2023-04-28T00:42:21.812Z,998.61
2023-04-28T00:43:21.814Z,998.65
2023-04-28T00:44:21.783Z,998.64
2023-04-28T00:45:21.813Z,998.70
2023-04-28T00:46:21.840Z,998.70
2023-04-28T00:47:21.760Z,998.66
2023-04-28T00:48:21.741Z,998.69
2023-04-28T00:49:21.735Z,998.69
2023-04-28T00:50:21.730Z,998.67
2023-04-28T00:51:21.765Z,998.74
2023-04-28T00:52:21.712Z,998.71
2023-04-28T00:53:21.713Z,998.73
2023-04-28T00:54:21.711Z,998.76
2023-04-28T00:55:21.676Z,998.79
2023-04-28T00:56:21.671Z,998.76
2023-04-28T00:57:21.699Z,998.79
2023-04-28T00:58:21.660Z,998.79
2023-04-28T00:59:21.641Z,998.85
2023-04-28T01:00:21.629Z,998.87
2023-04-28T01:01:21.679Z,998.85
2023-04-28T01:02:21.710Z,998.93
2023-04-28T01:03:21.707Z,998.88
2023-04-28T01:04:21.734Z,998.90
2023-04-28T01:05:21.594Z,998.85
2023-04-28T01:06:21.575Z,998.89
2023-04-28T01:07:21.569Z,998.88
2023-04-28T01:08:21.560Z,998.90
2023-04-28T01:09:21.574Z,998.91
2023-04-28T01:10:21.539Z,998.92
2023-04-28T01:11:21.532Z,998.87
2023-04-28T01:12:21.525Z,998.95
2023-04-28T01:13:21.501Z,998.90
2023-04-28T01:14:21.495Z,998.91
2023-04-28T01:15:21.522Z,998.87
2023-04-28T01:16:21.522Z,998.88
2023-04-28T01:17:21.472Z,998.89
2023-04-28T01:18:21.462Z,998.90
2023-04-28T01:19:21.451Z,998.87
2023-04-28T01:20:21.464Z,998.90
2023-04-28T01:21:21.456Z,998.89
2023-04-28T01:22:21.421Z,998.91
2023-04-28T01:23:21.394Z,998.95
2023-04-28T01:24:21.404Z,998.92
2023-04-28T01:25:21.381Z,998.91
2023-04-28T01:26:21.372Z,998.91
2023-04-28T01:27:21.385Z,998.91
2023-04-28T01:28:21.358Z,999.00
2023-04-28T01:29:21.342Z,998.97
2023-04-28T01:30:21.345Z,998.97
2023-04-28T01:31:21.345Z,998.97
2023-04-28T01:32:21.309Z,998.97
2023-04-28T01:33:21.323Z,998.98
2023-04-28T01:34:21.293Z,998.97
2023-04-28T01:35:21.280Z,998.98
2023-04-28T01:36:21.299Z,998.96
2023-04-28T01:37:21.268Z,999.08
2023-04-28T01:38:21.256Z,999.00
2023-04-28T01:39:21.261Z,998.95
2023-04-28T01:40:21.244Z,999.04
2023-04-28T01:41:21.232Z,999.06
2023-04-28T01:42:21.217Z,999.03
2023-04-28T01:43:21.219Z,999.05
2023-04-28T01:44:21.204Z,999.08
2023-04-28T01:45:21.247Z,999.08
2023-04-28T01:46:21.223Z,999.11
2023-04-28T01:47:21.327Z,999.16
2023-04-28T01:48:21.161Z,999.12
2023-04-28T01:49:21.148Z,999.14
2023-04-28T01:50:21.141Z,999.10
2023-04-28T01:51:21.176Z,999.18
2023-04-28T01:52:21.130Z,999.11
2023-04-28T01:53:21.119Z,999.14
2023-04-28T01:54:21.111Z,999.11
2023-04-28T01:55:21.100Z,999.14
2023-04-28T01:56:21.094Z,999.13
2023-04-28T01:57:22.364Z,999.17
2023-04-28T01:58:21.084Z,999.13
2023-04-28T01:59:21.050Z,999.15
2023-04-28T02:00:21.090Z,999.08
2023-04-28T02:01:21.063Z,999.12
2023-04-28T02:02:21.064Z,999.12
2023-04-28T02:03:21.194Z,999.13
2023-04-28T02:04:21.054Z,999.15
2023-04-28T02:05:20.992Z,999.12
2023-04-28T02:06:20.993Z,999.16
2023-04-28T02:07:20.978Z,999.19
2023-04-28T02:08:20.966Z,999.18
2023-04-28T02:09:20.974Z,999.23
2023-04-28T02:10:20.945Z,999.19
2023-04-28T02:11:20.930Z,999.25
2023-04-28T02:12:20.936Z,999.28
2023-04-28T02:13:20.913Z,999.36
2023-04-28T02:14:20.908Z,999.28
2023-04-28T02:15:20.910Z,999.30
2023-04-28T02:16:20.917Z,999.29
2023-04-28T02:17:20.875Z,999.28
2023-04-28T02:18:20.863Z,999.32
2023-04-28T02:19:20.859Z,999.32
2023-04-28T02:20:20.890Z,999.34
2023-04-28T02:21:20.886Z,999.36
2023-04-28T02:22:20.840Z,999.34
2023-04-28T02:23:20.821Z,999.35
2023-04-28T02:24:20.813Z,999.26
2023-04-28T02:25:20.808Z,999.33
2023-04-28T02:26:20.795Z,999.39
2023-04-28T02:27:20.821Z,999.30
2023-04-28T02:28:20.775Z,999.38
2023-04-28T02:29:20.763Z,999.35
2023-04-28T02:30:20.737Z,999.38
2023-04-28T02:31:20.725Z,999.36
2023-04-28T02:32:20.742Z,999.36
2023-04-28T02:33:20.758Z,999.33
2023-04-28T02:34:20.717Z,999.35
2023-04-28T02:35:20.709Z,999.31
2023-04-28T02:36:20.700Z,999.35
2023-04-28T02:37:20.640Z,999.37
2023-04-28T02:38:20.674Z,999.35
2023-04-28T02:39:20.700Z,999.38
2023-04-28T02:40:20.657Z,999.35
2023-04-28T02:41:20.642Z,999.40
2023-04-28T02:42:20.590Z,999.36
2023-04-28T02:43:20.574Z,999.35
2023-04-28T02:44:20.562Z,999.38
2023-04-28T02:45:20.598Z,999.33
2023-04-28T02:46:20.565Z,999.43
2023-04-28T02:47:20.530Z,999.36
2023-04-28T02:48:20.529Z,999.40
2023-04-28T02:49:20.538Z,999.37
2023-04-28T02:50:20.506Z,999.39
2023-04-28T02:51:20.521Z,999.38
2023-04-28T02:52:20.482Z,999.38
2023-04-28T02:53:20.477Z,999.38
2023-04-28T02:54:20.468Z,999.41
2023-04-28T02:55:20.454Z,999.36
2023-04-28T02:56:20.485Z,999.44
2023-04-28T02:57:20.475Z,999.43
2023-04-28T02:58:20.436Z,999.43
2023-04-28T02:59:20.434Z,999.42
2023-04-28T03:00:20.419Z,999.43
2023-04-28T03:01:20.428Z,999.46
2023-04-28T03:02:20.402Z,999.43
2023-04-28T03:03:20.608Z,999.46
2023-04-28T03:04:20.750Z,999.48
2023-04-28T03:05:20.367Z,999.45
2023-04-28T03:06:20.370Z,999.50
2023-04-28T03:07:20.355Z,999.47
2023-04-28T03:08:20.348Z,999.50
2023-04-28T03:09:20.349Z,999.50
2023-04-28T03:10:20.324Z,999.51
2023-04-28T03:11:20.316Z,999.48
2023-04-28T03:12:20.298Z,999.55
2023-04-28T03:13:20.299Z,999.58
2023-04-28T03:14:20.279Z,999.60
2023-04-28T03:15:20.297Z,999.59
2023-04-28T03:16:20.304Z,999.58
2023-04-28T03:17:20.249Z,999.55
2023-04-28T03:18:20.248Z,999.56
2023-04-28T03:19:20.228Z,999.61
2023-04-28T03:20:20.220Z,999.54
2023-04-28T03:21:20.225Z,999.58
2023-04-28T03:22:20.188Z,999.57
2023-04-28T03:23:20.182Z,999.56
2023-04-28T03:24:20.184Z,999.63
2023-04-28T03:25:20.177Z,999.62
2023-04-28T03:26:20.148Z,999.61
2023-04-28T03:27:20.181Z,999.61
2023-04-28T03:28:20.138Z,999.55
2023-04-28T03:29:20.115Z,999.61
2023-04-28T03:30:20.113Z,999.57
2023-04-28T03:31:20.110Z,999.55
2023-04-28T03:32:20.131Z,999.57
2023-04-28T03:33:20.850Z,999.56
2023-04-28T03:34:20.090Z,999.55
2023-04-28T03:35:20.072Z,999.62
2023-04-28T03:36:20.073Z,999.58
2023-04-28T03:37:20.061Z,999.55
2023-04-28T03:38:20.037Z,999.62
2023-04-28T03:39:20.066Z,999.60
2023-04-28T03:40:20.061Z,999.69
2023-04-28T03:41:20.019Z,999.65
2023-04-28T03:42:20.001Z,999.73
2023-04-28T03:43:20.005Z,999.71
2023-04-28T03:44:19.997Z,999.70
2023-04-28T03:45:20.030Z,999.69
2023-04-28T03:46:20.075Z,999.73
2023-04-28T03:47:19.960Z,999.68
2023-04-28T03:48:19.957Z,999.70
2023-04-28T03:49:19.941Z,999.76
2023-04-28T03:50:19.927Z,999.71
2023-04-28T03:51:19.958Z,999.68
2023-04-28T03:52:19.912Z,999.65
2023-04-28T03:53:19.904Z,999.65
2023-04-28T03:54:19.892Z,999.72
2023-04-28T03:55:19.904Z,999.76
2023-04-28T03:56:19.872Z,999.69
2023-04-28T03:57:19.884Z,999.77
2023-04-28T03:58:19.840Z,999.75
2023-04-28T03:59:19.848Z,999.75
2023-04-28T04:00:19.831Z,999.79
2023-04-28T04:01:19.858Z,999.76
2023-04-28T04:02:19.907Z,999.76
2023-04-28T04:03:19.965Z,999.77
2023-04-28T04:04:20.499Z,999.82
2023-04-28T04:05:19.993Z,999.81
2023-04-28T04:06:19.760Z,999.79
2023-04-28T04:07:19.761Z,999.87
2023-04-28T04:08:19.750Z,999.83
2023-04-28T04:09:19.781Z,999.80
2023-04-28T04:10:19.721Z,999.80
2023-04-28T04:11:19.721Z,999.88
2023-04-28T04:12:19.713Z,999.78
2023-04-28T04:13:19.704Z,999.81
2023-04-28T04:14:19.703Z,999.84
2023-04-28T04:15:19.712Z,999.80
2023-04-28T04:16:19.683Z,999.79
2023-04-28T04:17:19.667Z,999.80
2023-04-28T04:18:19.668Z,999.89
2023-04-28T04:19:19.661Z,999.84
2023-04-28T04:20:19.640Z,999.87
2023-04-28T04:21:19.671Z,999.92
2023-04-28T04:22:19.614Z,999.88
2023-04-28T04:23:19.605Z,999.94
2023-04-28T04:24:19.602Z,999.91
2023-04-28T04:25:20.472Z,999.92
2023-04-28T04:26:19.586Z,999.88
2023-04-28T04:27:19.595Z,999.91
2023-04-28T04:28:19.766Z,999.88
2023-04-28T04:29:19.558Z,999.89
2023-04-28T04:30:19.552Z,999.87
2023-04-28T04:31:19.652Z,999.93
2023-04-28T04:32:19.529Z,999.86
2023-04-28T04:33:19.528Z,999.87
2023-04-28T04:34:19.493Z,999.86
2023-04-28T04:35:19.488Z,999.88
2023-04-28T04:36:19.471Z,999.88
2023-04-28T04:37:19.487Z,999.90
2023-04-28T04:38:19.460Z,999.90
2023-04-28T04:39:19.503Z,999.85
2023-04-28T04:40:19.452Z,999.87
2023-04-28T04:41:19.429Z,999.97
2023-04-28T04:42:25.468Z,999.93
2023-04-28T04:43:20.405Z,999.91
2023-04-28T04:45:19.423Z,999.94
2023-04-28T04:46:19.408Z,999.91
2023-04-28T04:47:19.400Z,999.93
2023-04-28T04:48:19.372Z,999.94
2023-04-28T04:49:19.349Z,999.98
2023-04-28T04:50:19.340Z,999.97
2023-04-28T04:51:19.361Z,999.97
2023-04-28T04:52:19.333Z,999.95
2023-04-28T04:53:19.324Z,1000.00
2023-04-28T04:54:19.395Z,999.97
2023-04-28T04:55:19.304Z,999.96
2023-04-28T04:56:19.297Z,999.92
2023-04-28T04:57:19.324Z,999.95
2023-04-28T04:58:19.297Z,999.94
2023-04-28T04:59:19.270Z,999.97
2023-04-28T05:00:19.257Z,1000.00
2023-04-28T05:01:19.261Z,1000.01
2023-04-28T05:02:19.332Z,999.96
2023-04-28T05:03:19.386Z,999.99
2023-04-28T05:04:19.521Z,999.99
2023-04-28T05:05:22.129Z,1000.04
2023-04-28T05:06:19.192Z,1000.03
2023-04-28T05:07:19.188Z,1000.01
2023-04-28T05:08:19.182Z,999.96
2023-04-28T05:09:19.204Z,999.95
2023-04-28T05:10:19.155Z,999.95
2023-04-28T05:11:19.144Z,999.93
2023-04-28T05:12:19.129Z,999.94
2023-04-28T05:13:19.133Z,999.97
2023-04-28T05:14:19.198Z,999.98
2023-04-28T05:15:19.131Z,999.96
2023-04-28T05:16:19.138Z,999.95
2023-04-28T05:17:19.092Z,999.96
2023-04-28T05:18:19.087Z,999.96
2023-04-28T05:19:19.066Z,1000.01
2023-04-28T05:20:19.064Z,999.92
2023-04-28T05:21:19.076Z,999.95
2023-04-28T05:22:19.031Z,999.95
2023-04-28T05:23:19.034Z,999.97
2023-04-28T05:24:19.006Z,999.90
2023-04-28T05:25:19.005Z,999.93
2023-04-28T05:26:19.006Z,999.90
2023-04-28T05:27:19.007Z,999.87
2023-04-28T05:28:21.893Z,999.85
2023-04-28T05:29:18.976Z,999.88
2023-04-28T05:30:18.960Z,999.85
2023-04-28T05:31:19.009Z,999.84
2023-04-28T05:32:19.095Z,999.81
2023-04-28T05:33:21.786Z,999.75
2023-04-28T05:34:19.106Z,999.77
2023-04-28T05:35:18.913Z,999.81
2023-04-28T05:36:18.900Z,999.79
2023-04-28T05:37:18.900Z,999.76
2023-04-28T05:38:18.882Z,999.81
2023-04-28T05:39:18.903Z,999.81
2023-04-28T05:40:18.858Z,999.85
2023-04-28T05:41:18.848Z,999.89
2023-04-28T05:42:18.839Z,999.89
2023-04-28T05:43:18.831Z,999.84
2023-04-28T05:44:18.819Z,999.83
2023-04-28T05:45:18.833Z,999.83
2023-04-28T05:46:29.825Z,999.95
2023-04-28T05:47:19.791Z,999.93
2023-04-28T05:48:18.792Z,999.90
2023-04-28T05:49:18.780Z,999.90
2023-04-28T05:50:18.759Z,999.88
2023-04-28T05:51:18.763Z,999.88
2023-04-28T05:52:18.728Z,999.85
2023-04-28T05:53:18.731Z,999.86
2023-04-28T05:54:19.043Z,999.93
2023-04-28T05:55:18.703Z,999.95
2023-04-28T05:56:18.687Z,999.93
2023-04-28T05:57:18.725Z,999.94
2023-04-28T05:58:18.676Z,999.94
2023-04-28T05:59:18.899Z,999.92
2023-04-28T06:00:18.658Z,999.95
2023-04-28T06:01:18.651Z,1000.00
2023-04-28T06:02:21.214Z,999.94
2023-04-28T06:03:18.873Z,999.98
2023-04-28T06:04:19.038Z,999.98
2023-04-28T06:05:19.027Z,999.98
2023-04-28T06:06:18.856Z,999.99
2023-04-28T06:07:18.586Z,999.98
2023-04-28T06:08:18.586Z,1000.04
2023-04-28T06:09:18.862Z,999.97
2023-04-28T06:10:18.559Z,1000.03
2023-04-28T06:11:18.554Z,1000.03
2023-04-28T06:12:18.541Z,1000.03
2023-04-28T06:13:18.535Z,999.98
2023-04-28T06:14:18.806Z,999.97
2023-04-28T06:15:18.546Z,999.98
2023-04-28T06:16:18.533Z,999.99
2023-04-28T06:17:18.491Z,1000.04
2023-04-28T06:18:18.471Z,999.98
2023-04-28T06:19:18.476Z,1000.05
2023-04-28T06:20:18.472Z,1000.02
2023-04-28T06:21:18.479Z,1000.06
2023-04-28T06:22:18.453Z,1000.01
2023-04-28T06:23:18.464Z,1000.02
2023-04-28T06:24:18.807Z,1000.08
2023-04-28T06:25:18.422Z,1000.12
2023-04-28T06:26:18.741Z,1000.10
2023-04-28T06:27:18.524Z,1000.17
2023-04-28T06:28:18.398Z,1000.13
2023-04-28T06:29:18.374Z,1000.13
2023-04-28T06:30:18.355Z,1000.12
2023-04-28T06:31:18.393Z,1000.13
2023-04-28T06:32:18.353Z,1000.15
2023-04-28T06:33:18.354Z,1000.12
2023-04-28T06:34:18.542Z,1000.09
2023-04-28T06:35:18.308Z,1000.09
2023-04-28T06:36:18.370Z,1000.15
2023-04-28T06:37:18.285Z,1000.17
2023-04-28T06:38:18.277Z,1000.19
2023-04-28T06:39:18.297Z,1000.17
2023-04-28T06:40:18.245Z,1000.17
2023-04-28T06:41:18.248Z,1000.20
2023-04-28T06:42:18.242Z,1000.23
2023-04-28T06:43:18.224Z,1000.21
2023-04-28T06:44:18.582Z,1000.26
2023-04-28T06:45:18.244Z,1000.17
2023-04-28T06:46:18.228Z,1000.19
2023-04-28T06:47:18.212Z,1000.15
2023-04-28T06:48:18.182Z,1000.18
2023-04-28T06:49:18.175Z,1000.12
2023-04-28T06:50:18.170Z,1000.18
2023-04-28T06:51:18.171Z,1000.19
2023-04-28T06:52:18.195Z,1000.16
2023-04-28T06:53:18.130Z,1000.14
2023-04-28T06:54:18.582Z,1000.16
2023-04-28T06:55:18.121Z,1000.15
2023-04-28T06:56:18.098Z,1000.18
2023-04-28T06:57:18.105Z,1000.22
2023-04-28T06:58:18.082Z,1000.16
2023-04-28T06:59:18.082Z,1000.19
2023-04-28T07:00:18.080Z,1000.11
2023-04-28T07:01:18.130Z,1000.17
2023-04-28T07:02:18.157Z,1000.14
2023-04-28T07:03:18.169Z,1000.16
2023-04-28T07:04:18.382Z,1000.20
2023-04-28T07:05:18.009Z,1000.19
2023-04-28T07:06:17.991Z,1000.20
2023-04-28T07:07:18.036Z,1000.15
2023-04-28T07:08:17.965Z,1000.26
2023-04-28T07:09:18.027Z,1000.25
2023-04-28T07:10:17.949Z,1000.23
2023-04-28T07:11:17.944Z,1000.22
2023-04-28T07:12:17.940Z,1000.23
2023-04-28T07:13:17.922Z,1000.13
2023-04-28T07:14:18.275Z,1000.14
2023-04-28T07:15:17.943Z,1000.15
2023-04-28T07:16:18.011Z,1000.08
2023-04-28T07:17:17.878Z,1000.11
2023-04-28T07:18:17.877Z,1000.13
2023-04-28T07:19:17.859Z,1000.13
2023-04-28T07:20:17.862Z,1000.13
2023-04-28T07:21:17.868Z,1000.14
2023-04-28T07:22:17.831Z,1000.12
2023-04-28T07:23:17.829Z,1000.12
2023-04-28T07:24:18.036Z,1000.14
2023-04-28T07:25:17.824Z,1000.11
2023-04-28T07:26:17.803Z,1000.12
2023-04-28T07:27:17.822Z,1000.12
2023-04-28T07:28:17.781Z,1000.15
2023-04-28T07:29:17.807Z,1000.12
2023-04-28T07:30:27.478Z,1000.13
2023-04-28T07:31:18.841Z,1000.18
2023-04-28T07:32:18.044Z,1000.15
2023-04-28T07:33:17.748Z,1000.13
2023-04-28T07:34:18.000Z,1000.15
2023-04-28T07:35:17.712Z,1000.19
2023-04-28T07:36:17.706Z,1000.20
2023-04-28T07:37:17.692Z,1000.12
2023-04-28T07:38:17.766Z,1000.15
2023-04-28T07:39:17.685Z,1000.14
2023-04-28T07:40:17.753Z,1000.14
2023-04-28T07:41:17.655Z,1000.16
2023-04-28T07:42:17.732Z,1000.15
2023-04-28T07:43:17.618Z,1000.18
2023-04-28T07:44:17.764Z,1000.16
2023-04-28T07:45:17.618Z,1000.14
2023-04-28T07:46:17.618Z,1000.15
2023-04-28T07:47:17.582Z,1000.17
2023-04-28T07:48:17.597Z,1000.17
2023-04-28T07:49:17.554Z,1000.18
2023-04-28T07:50:17.555Z,1000.15
2023-04-28T07:51:17.544Z,1000.21
2023-04-28T07:52:17.516Z,1000.21
2023-04-28T07:53:17.508Z,1000.20
2023-04-28T07:54:17.856Z,1000.18
2023-04-28T07:55:17.506Z,1000.20
2023-04-28T07:56:17.476Z,1000.19
2023-04-28T07:57:17.499Z,1000.16
2023-04-28T07:58:17.457Z,1000.15
2023-04-28T07:59:17.445Z,1000.20
2023-04-28T08:00:17.441Z,1000.19
2023-04-28T08:01:17.434Z,1000.18
2023-04-28T08:02:17.500Z,1000.17
2023-04-28T08:03:17.623Z,1000.18
2023-04-28T08:04:17.865Z,1000.14
2023-04-28T08:05:17.617Z,1000.12
2023-04-28T08:06:17.381Z,1000.13
2023-04-28T08:07:17.364Z,1000.16
2023-04-28T08:08:17.360Z,1000.17
2023-04-28T08:09:17.390Z,1000.14
2023-04-28T08:10:17.359Z,1000.12
2023-04-28T08:11:17.334Z,1000.12
2023-04-28T08:12:17.322Z,1000.14
2023-04-28T08:13:17.317Z,1000.19
2023-04-28T08:14:17.441Z,1000.13
2023-04-28T08:15:18.486Z,1000.13
2023-04-28T08:16:17.321Z,1000.13
2023-04-28T08:17:17.260Z,1000.07
2023-04-28T08:18:17.318Z,1000.10
2023-04-28T08:19:17.250Z,1000.10
2023-04-28T08:20:17.238Z,1000.12
2023-04-28T08:21:17.241Z,1000.12
2023-04-28T08:22:17.211Z,1000.10
2023-04-28T08:23:17.190Z,1000.02
2023-04-28T08:24:17.379Z,1000.05
2023-04-28T08:25:17.171Z,1000.05
2023-04-28T08:26:17.174Z,1000.07
2023-04-28T08:27:17.175Z,1000.10
2023-04-28T08:28:17.151Z,1000.11
2023-04-28T08:29:17.135Z,1000.07
2023-04-28T08:30:17.121Z,1000.09
2023-04-28T08:31:17.126Z,1000.13
2023-04-28T08:32:17.108Z,1000.05
2023-04-28T08:33:17.203Z,1000.07
2023-04-28T08:34:17.212Z,1000.13
2023-04-28T08:35:17.064Z,1000.10
2023-04-28T08:36:17.078Z,1000.14
2023-04-28T08:37:17.046Z,1000.12
2023-04-28T08:38:17.045Z,1000.18
2023-04-28T08:39:17.105Z,1000.17
2023-04-28T08:40:17.026Z,1000.18
2023-04-28T08:41:17.008Z,1000.10
2023-04-28T08:42:17.011Z,1000.14
2023-04-28T08:43:17.016Z,1000.11
2023-04-28T08:44:17.193Z,1000.11
2023-04-28T08:45:17.008Z,1000.13
2023-04-28T08:46:16.984Z,1000.07
2023-04-28T08:47:16.947Z,1000.08
2023-04-28T08:48:16.947Z,1000.11
2023-04-28T08:49:16.945Z,1000.07
2023-04-28T08:50:16.932Z,1000.12
2023-04-28T08:51:16.972Z,1000.07
2023-04-28T08:52:16.905Z,1000.07
2023-04-28T08:53:16.891Z,1000.13
2023-04-28T08:54:29.278Z,1000.09
2023-04-28T08:55:17.869Z,1000.08
2023-04-28T08:56:16.920Z,1000.17
2023-04-28T08:57:16.882Z,1000.09
2023-04-28T08:58:16.849Z,1000.06
2023-04-28T08:59:16.827Z,1000.06
2023-04-28T09:00:16.835Z,1000.10
2023-04-28T09:01:16.878Z,1000.09
2023-04-28T09:02:16.976Z,1000.07
2023-04-28T09:03:16.906Z,1000.06
2023-04-28T09:04:16.969Z,1000.10
2023-04-28T09:05:17.138Z,1000.14
2023-04-28T09:06:16.755Z,1000.02
2023-04-28T09:07:16.766Z,1000.11
2023-04-28T09:08:16.731Z,1000.09
2023-04-28T09:09:16.762Z,1000.11
2023-04-28T09:10:16.718Z,1000.14
2023-04-28T09:11:16.710Z,1000.14
2023-04-28T09:12:16.685Z,1000.11
2023-04-28T09:13:16.671Z,1000.09
2023-04-28T09:14:16.887Z,1000.10
2023-04-28T09:15:16.688Z,1000.07
2023-04-28T09:16:16.680Z,1000.14
2023-04-28T09:17:16.665Z,1000.12
2023-04-28T09:18:16.639Z,1000.19
2023-04-28T09:19:16.612Z,1000.15
2023-04-28T09:20:16.608Z,1000.12
2023-04-28T09:21:16.622Z,1000.05
2023-04-28T09:22:26.129Z,1000.10
2023-04-28T09:23:17.605Z,1000.05
2023-04-28T09:24:16.886Z,1000.05
2023-04-28T09:25:16.554Z,999.98
2023-04-28T09:26:16.564Z,1000.08
2023-04-28T09:27:16.558Z,1000.02
2023-04-28T09:28:16.537Z,1000.04
2023-04-28T09:29:16.520Z,1000.10
2023-04-28T09:30:16.526Z,1000.08
2023-04-28T09:31:16.501Z,1000.06
2023-04-28T09:32:16.655Z,1000.01
2023-04-28T09:33:16.631Z,1000.09
2023-04-28T09:34:19.366Z,1000.08
2023-04-28T09:35:16.459Z,1000.16
2023-04-28T09:36:16.450Z,1000.19
2023-04-28T09:37:16.436Z,1000.14
2023-04-28T09:38:16.430Z,1000.15
2023-04-28T09:39:16.440Z,1000.15
2023-04-28T09:40:16.456Z,1000.15
2023-04-28T09:41:16.393Z,1000.15
2023-04-28T09:42:16.397Z,1000.22
2023-04-28T09:43:21.901Z,1000.14
2023-04-28T09:44:17.736Z,1000.13
2023-04-28T09:45:16.383Z,1000.12
2023-04-28T09:46:16.386Z,1000.08
2023-04-28T09:47:16.326Z,1000.07
2023-04-28T09:48:16.343Z,1000.10
2023-04-28T09:49:16.307Z,1000.08
2023-04-28T09:50:16.369Z,1000.14
2023-04-28T09:51:16.280Z,1000.17
2023-04-28T09:52:16.284Z,1000.16
2023-04-28T09:53:16.270Z,1000.11
2023-04-28T09:54:16.257Z,1000.10
2023-04-28T09:55:16.264Z,1000.01
2023-04-28T09:56:16.262Z,1000.04
2023-04-28T09:57:16.221Z,1000.02
2023-04-28T09:58:16.220Z,999.98
2023-04-28T09:59:16.226Z,999.98
2023-04-28T10:00:16.253Z,1000.05
2023-04-28T10:01:16.213Z,1000.04
2023-04-28T10:02:41.203Z,999.96
2023-04-28T10:03:17.311Z,999.99
2023-04-28T10:04:16.392Z,999.98
2023-04-28T10:05:16.342Z,999.95
2023-04-28T10:06:16.147Z,999.86
2023-04-28T10:07:16.127Z,999.85
2023-04-28T10:08:16.164Z,999.94
2023-04-28T10:09:16.358Z,999.91
2023-04-28T10:10:16.166Z,999.86
2023-04-28T10:11:16.092Z,999.98
2023-04-28T10:12:16.094Z,999.91
2023-04-28T10:13:16.073Z,999.89
2023-04-28T10:14:16.128Z,999.83
2023-04-28T10:15:16.054Z,999.90
2023-04-28T10:16:16.063Z,999.85
2023-04-28T10:17:16.017Z,999.89
2023-04-28T10:18:16.026Z,1000.00
2023-04-28T10:19:16.001Z,999.94
2023-04-28T10:20:16.048Z,1000.00
2023-04-28T10:21:15.991Z,999.99
2023-04-28T10:22:15.994Z,1000.04
2023-04-28T10:23:15.953Z,999.97
2023-04-28T10:24:15.963Z,999.94
2023-04-28T10:25:15.958Z,999.95
2023-04-28T10:26:15.954Z,999.97
2023-04-28T10:27:15.917Z,999.92
2023-04-28T10:28:15.920Z,999.87
2023-04-28T10:29:15.896Z,999.85
2023-04-28T10:31:15.910Z,999.85
2023-04-28T10:32:15.898Z,999.87
2023-04-28T10:33:15.860Z,999.85
2023-04-28T10:34:15.857Z,999.82
2023-04-28T10:35:15.830Z,999.73
2023-04-28T10:36:17.682Z,999.87
2023-04-28T10:37:15.832Z,999.84
2023-04-28T10:38:15.916Z,999.93
2023-04-28T10:39:15.806Z,999.81
2023-04-28T10:40:15.816Z,999.94
2023-04-28T10:41:15.774Z,999.96
2023-04-28T10:42:15.795Z,999.94
2023-04-28T10:43:15.750Z,999.98
2023-04-28T10:44:15.780Z,999.87
2023-04-28T10:45:15.754Z,999.98
2023-04-28T10:46:15.778Z,999.89
2023-04-28T10:47:15.732Z,999.84
2023-04-28T10:48:15.712Z,999.87
2023-04-28T10:49:15.713Z,999.87
2023-04-28T10:50:15.721Z,999.83
2023-04-28T10:51:15.708Z,999.87
2023-04-28T10:52:16.553Z,999.91
2023-04-28T10:53:15.658Z,999.87
2023-04-28T10:54:15.662Z,999.92
2023-04-28T10:55:22.072Z,999.88
2023-04-28T10:56:16.665Z,999.94
2023-04-28T10:57:15.613Z,999.91
2023-04-28T10:58:15.795Z,999.95
2023-04-28T10:59:15.600Z,999.91
2023-04-28T11:00:15.601Z,999.91
2023-04-28T11:01:15.576Z,999.93
2023-04-28T11:02:15.607Z,999.94
2023-04-28T11:03:15.656Z,999.95
2023-04-28T11:04:15.711Z,999.94
2023-04-28T11:05:15.695Z,999.94
2023-04-28T11:06:15.533Z,999.94
2023-04-28T11:07:15.512Z,999.92
2023-04-28T11:08:15.539Z,999.97
2023-04-28T11:09:15.709Z,999.89
2023-04-28T11:10:15.474Z,999.94
2023-04-28T11:11:15.463Z,999.98
2023-04-28T11:12:15.455Z,999.93
2023-04-28T11:13:15.441Z,999.89
2023-04-28T11:14:15.506Z,999.96
2023-04-28T11:15:15.431Z,999.90
2023-04-28T11:16:15.437Z,999.91
2023-04-28T11:17:15.413Z,999.92
2023-04-28T11:18:15.399Z,999.94
2023-04-28T11:19:15.382Z,999.94
2023-04-28T11:20:15.411Z,999.92
2023-04-28T11:21:15.370Z,999.96
2023-04-28T11:22:15.359Z,999.97
2023-04-28T11:23:15.346Z,999.97
2023-04-28T11:24:15.381Z,999.97
2023-04-28T11:25:15.340Z,999.97
2023-04-28T11:26:15.389Z,1000.01
2023-04-28T11:27:15.323Z,1000.00
2023-04-28T11:28:15.310Z,1000.04
2023-04-28T11:29:15.381Z,1000.01
2023-04-28T11:30:15.307Z,999.98
2023-04-28T11:31:15.321Z,1000.01
2023-04-28T11:32:15.330Z,1000.05
2023-04-28T11:33:15.313Z,1000.05
2023-04-28T11:34:15.227Z,1000.04
2023-04-28T11:35:15.221Z,1000.06
2023-04-28T11:36:15.198Z,999.98
2023-04-28T11:37:15.626Z,1000.02
2023-04-28T11:38:15.202Z,999.96
2023-04-28T11:39:15.183Z,1000.00
2023-04-28T11:40:15.160Z,1000.05
2023-04-28T11:41:15.168Z,1000.01
2023-04-28T11:42:15.149Z,1000.09
2023-04-28T11:43:15.136Z,1000.03
2023-04-28T11:44:15.180Z,1000.03
2023-04-28T11:45:15.120Z,1000.02
2023-04-28T11:46:15.111Z,1000.02
2023-04-28T11:47:15.099Z,1000.01
2023-04-28T11:48:15.083Z,999.98
2023-04-28T11:49:15.074Z,1000.07
2023-04-28T11:50:15.102Z,999.99
2023-04-28T11:51:15.048Z,999.96
2023-04-28T11:52:15.080Z,999.96
2023-04-28T11:53:15.024Z,999.92
2023-04-28T11:54:15.064Z,999.93
2023-04-28T11:55:15.011Z,999.98
2023-04-28T11:56:15.025Z,999.98
2023-04-28T11:57:14.992Z,999.98
2023-04-28T11:58:14.987Z,1000.00
2023-04-28T11:59:14.978Z,1000.00
2023-04-28T12:00:15.182Z,1000.03
2023-04-28T12:01:14.956Z,1000.01
2023-04-28T12:02:15.035Z,1000.00
2023-04-28T12:03:15.142Z,1000.00
2023-04-28T12:04:15.004Z,999.97
2023-04-28T12:05:14.935Z,1000.00
2023-04-28T12:06:14.893Z,999.96
2023-04-28T12:07:14.914Z,999.95
2023-04-28T12:08:14.903Z,999.98
2023-04-28T12:09:14.869Z,999.99
2023-04-28T12:10:14.889Z,999.97
2023-04-28T12:11:14.862Z,1000.02
2023-04-28T12:12:14.842Z,999.91
2023-04-28T12:13:14.829Z,999.86
2023-04-28T12:14:14.850Z,999.86
2023-04-28T12:15:14.823Z,999.84
2023-04-28T12:16:14.843Z,999.93
2023-04-28T12:17:14.988Z,999.94
2023-04-28T12:18:14.770Z,999.92
2023-04-28T12:19:14.769Z,999.90
2023-04-28T12:20:14.816Z,999.92
2023-04-28T12:21:14.746Z,999.90
2023-04-28T12:22:14.730Z,999.89